Time;durP1;ratioP1;P1;durP2;ratioP2;P2;SDS_P1;SDS_P2;PMS_P1;PMS_P2;Temp;Humidity;BMP_temperature;BMP_pressure;BME280_temperature;BME280_humidity;BME280_pressure;Samples;Min_cycle;Max_cycle;Signal;HPM_P1;HPM_P2
2024/04/12 00:00:21;;;;;;;4.93;1.80;;;;;;;13.70;85.82;102637.69;9030779;26;20077;-77
2024/04/12 00:04:20;;;;;;;2.97;1.83;;;;;;;13.57;89.76;102643.47;9030835;26;20076;-77
2024/04/12 00:08:28;;;;;;;3.72;2.05;;;;;;;13.73;86.49;102637.41;9030469;26;20465;-77
2024/04/12 00:12:30;;;;;;;5.40;1.98;;;;;;;13.62;88.72;102637.63;8998823;26;20010;-77
2024/04/12 00:16:32;;;;;;;5.53;2.28;;;;;;;13.42;90.08;102628.81;9030579;26;20006;-78
2024/04/12 00:20:35;;;;;;;2.90;1.63;;;;;;;13.50;89.89;102626.19;9029358;26;20349;-77
2024/04/12 00:24:36;;;;;;;6.50;2.33;;;;;;;13.47;91.49;102616.56;9027196;26;20003;-77
2024/04/12 00:28:38;;;;;;;3.97;2.08;;;;;;;13.46;90.95;102617.56;9027179;26;20018;-77
2024/04/12 00:32:42;;;;;;;3.47;2.17;;;;;;;13.43;91.33;102609.81;9003648;26;20014;-77
2024/04/12 00:36:48;;;;;;;5.20;2.28;;;;;;;13.27;93.18;102612.31;9029767;26;20003;-78
2024/04/12 00:40:52;;;;;;;5.78;2.10;;;;;;;13.47;92.83;102619.28;9027130;26;20007;-77
2024/04/12 00:44:54;;;;;;;5.00;2.15;;;;;;;13.38;93.39;102616.66;8966199;26;20002;-77
2024/04/12 00:49:00;;;;;;;7.13;2.67;;;;;;;12.97;96.12;102616.94;8972046;26;20030;-76
2024/04/12 00:53:03;;;;;;;8.27;1.95;;;;;;;13.43;94.08;102625.13;8977413;26;20019;-76
2024/04/12 00:57:07;;;;;;;6.38;1.92;;;;;;;13.31;93.85;102615.53;8995702;26;20013;-77
2024/04/12 01:01:11;;;;;;;4.38;1.95;;;;;;;13.33;92.93;102611.69;9026176;26;20062;-77
2024/04/12 01:05:19;;;;;;;5.68;2.03;;;;;;;13.39;92.26;102615.66;9026225;26;20007;-77
2024/04/12 01:09:21;;;;;;;10.05;2.00;;;;;;;13.38;92.09;102616.66;9025728;26;20003;-77
2024/04/12 01:13:23;;;;;;;3.53;2.38;;;;;;;13.35;92.54;102615.06;9026007;26;20078;-77
2024/04/12 01:17:27;;;;;;;5.68;2.25;;;;;;;13.12;95.45;102611.06;9025961;26;20026;-77
2024/04/12 01:21:31;;;;;;;3.15;1.73;;;;;;;13.04;95.91;102601.06;9025217;26;20011;-77
2024/04/12 01:25:33;;;;;;;4.03;2.05;;;;;;;13.24;94.57;102591.91;8989677;26;20025;-77
2024/04/12 01:29:36;;;;;;;6.57;2.05;;;;;;;13.40;93.06;102593.13;9006509;26;20003;-77
2024/04/12 01:33:38;;;;;;;6.28;2.00;;;;;;;12.82;97.79;102588.81;9019744;26;20011;-77
2024/04/12 01:37:43;;;;;;;2.97;1.55;;;;;;;12.95;97.52;102588.47;9035048;26;20002;-78
2024/04/12 01:41:45;;;;;;;3.38;1.50;;;;;;;13.21;94.73;102586.00;8973304;26;20015;-77
2024/04/12 01:45:48;;;;;;;4.53;2.35;;;;;;;13.14;96.35;102583.00;9036867;26;20438;-78
2024/04/12 01:49:53;;;;;;;3.78;2.10;;;;;;;13.39;94.36;102583.34;8998159;26;20007;-77
2024/04/12 01:53:55;;;;;;;5.20;1.95;;;;;;;12.93;97.60;102577.88;8980971;26;19999;-77
2024/04/12 01:58:00;;;;;;;4.43;1.98;;;;;;;12.96;97.76;102580.25;8986590;26;20018;-77
2024/04/12 02:02:04;;;;;;;2.63;1.88;;;;;;;12.90;97.95;102575.47;8998739;26;20349;-77
2024/04/12 02:06:06;;;;;;;5.25;1.98;;;;;;;13.08;97.04;102588.16;9030367;26;20031;-77
2024/04/12 02:10:08;;;;;;;6.57;2.60;;;;;;;12.59;99.69;102579.41;9029929;26;20118;-77
2024/04/12 02:14:10;;;;;;;6.18;1.90;;;;;;;12.89;98.63;102578.31;9028700;26;20454;-78
2024/04/12 02:18:13;;;;;;;5.82;1.92;;;;;;;12.82;98.80;102582.56;9029802;26;20003;-77
2024/04/12 02:22:16;;;;;;;4.03;2.05;;;;;;;12.99;97.74;102584.50;9029599;26;20022;-77
2024/04/12 02:26:19;;;;;;;4.28;1.98;;;;;;;12.74;98.09;102579.78;9029495;26;20447;-77
2024/04/12 02:30:24;;;;;;;4.38;1.95;;;;;;;12.72;97.46;102588.00;9029539;26;20035;-77
2024/04/12 02:34:26;;;;;;;4.43;2.28;;;;;;;12.83;97.85;102587.81;9029263;26;19999;-77
2024/04/12 02:38:28;;;;;;;4.72;1.95;;;;;;;12.83;96.29;102586.97;9029410;26;20007;-77
2024/04/12 02:42:35;;;;;;;8.77;2.80;;;;;;;12.62;99.22;102600.63;9030542;26;20007;-76
2024/04/12 02:46:38;;;;;;;4.32;1.63;;;;;;;12.52;98.33;102606.03;9029144;26;20005;-77
2024/04/12 02:50:39;;;;;;;5.30;1.92;;;;;;;12.35;100.00;102596.88;9028763;26;20035;-77
2024/04/12 02:54:41;;;;;;;3.38;1.85;;;;;;;12.15;100.00;102589.84;9027813;26;20014;-77
2024/04/12 02:58:44;;;;;;;2.97;1.88;;;;;;;12.31;100.00;102594.59;9028684;26;20002;-77
2024/04/12 03:02:46;;;;;;;4.25;2.47;;;;;;;12.50;100.00;102588.38;9029512;26;20335;-77
2024/04/12 03:06:47;;;;;;;9.15;2.65;;;;;;;12.58;99.60;102588.47;9028661;26;20043;-77
2024/04/12 03:10:49;;;;;;;6.63;2.28;;;;;;;12.55;99.36;102575.31;8967637;26;20064;-77
2024/04/12 03:14:54;;;;;;;6.03;2.50;;;;;;;12.38;99.49;102593.03;8969213;26;20018;-77
2024/04/12 03:18:57;;;;;;;3.53;2.42;;;;;;;12.65;98.81;102582.34;8997171;26;20332;-77
2024/04/12 03:22:58;;;;;;;7.78;2.25;;;;;;;12.46;100.00;102582.41;9005102;26;20475;-77
2024/04/12 03:27:01;;;;;;;5.78;2.33;;;;;;;12.59;98.85;102580.25;9006042;26;20018;-77
2024/04/12 03:31:07;;;;;;;5.53;2.00;;;;;;;12.48;100.00;102577.72;9028899;26;20400;-77
2024/04/12 03:35:09;;;;;;;5.13;2.13;;;;;;;12.27;100.00;102580.59;9028289;26;20006;-76
2024/04/12 03:43:27;;;;;;;5.57;2.20;;;;;;;12.30;100.00;102587.53;9035072;26;20060;-79
2024/04/12 03:47:28;;;;;;;4.90;2.00;;;;;;;12.37;100.00;102588.66;9036660;26;20083;-76
2024/04/12 03:51:30;;;;;;;6.47;2.30;;;;;;;12.49;100.00;102589.31;9029878;26;20014;-76
2024/04/12 03:55:32;;;;;;;3.05;2.10;;;;;;;12.35;100.00;102588.81;8983950;26;20003;-77
2024/04/12 03:59:34;;;;;;;6.57;2.10;;;;;;;12.44;100.00;102583.53;9009025;26;20006;-77
2024/04/12 04:03:36;;;;;;;7.25;2.78;;;;;;;12.49;100.00;102592.00;8997391;26;20421;-77
2024/04/12 04:07:39;;;;;;;3.97;2.47;;;;;;;12.56;100.00;102599.38;9026050;26;20007;-77
2024/04/12 04:11:43;;;;;;;5.90;2.65;;;;;;;12.42;100.00;102594.44;9028881;26;20015;-77
2024/04/12 04:15:50;;;;;;;3.50;2.03;;;;;;;12.62;100.00;102600.63;8980315;26;20444;-77
2024/04/12 04:19:52;;;;;;;5.75;2.35;;;;;;;12.56;100.00;102607.44;9007018;26;20003;-77
2024/04/12 04:23:58;;;;;;;4.22;2.67;;;;;;;12.75;100.00;102592.25;9027642;26;20014;-77
2024/04/12 04:28:00;;;;;;;3.85;2.72;;;;;;;12.72;99.76;102587.16;9020557;26;20292;-77
2024/04/12 04:32:03;;;;;;;5.35;2.63;;;;;;;12.56;100.00;102585.09;8957285;26;20004;-76
2024/04/12 04:36:11;;;;;;;7.07;2.70;;;;;;;12.64;100.00;102591.41;8936575;26;20022;-76
2024/04/12 04:40:19;;;;;;;7.47;2.72;;;;;;;12.83;100.00;102585.13;9012773;26;19999;-76
2024/04/12 04:44:22;;;;;;;12.68;3.13;;;;;;;12.71;100.00;102578.25;9027043;26;20003;-76
2024/04/12 04:48:23;;;;;;;27.35;4.45;;;;;;;12.70;100.00;102590.00;9027073;26;20327;-77
2024/04/12 04:52:35;;;;;;;8.02;2.97;;;;;;;12.55;100.00;102584.22;9028483;26;20146;-77
2024/04/12 04:56:43;;;;;;;3.45;2.20;;;;;;;12.61;100.00;102590.88;9028629;26;20018;-78
2024/04/12 05:00:49;;;;;;;21.20;4.37;;;;;;;12.57;100.00;102584.94;9026891;26;20011;-77
2024/04/12 05:04:51;;;;;;;7.57;2.95;;;;;;;12.63;100.00;102576.28;8995765;26;20002;-77
2024/04/12 05:09:00;;;;;;;7.03;3.20;;;;;;;12.72;100.00;102565.66;9026455;26;20003;-77
2024/04/12 05:13:04;;;;;;;5.25;2.67;;;;;;;12.79;100.00;102566.75;9027114;26;20039;-76
2024/04/12 05:17:09;;;;;;;9.32;3.55;;;;;;;12.55;100.00;102572.63;9025211;26;20487;-76
2024/04/12 05:21:13;;;;;;;13.65;3.30;;;;;;;12.40;100.00;102558.81;9021473;26;20075;-76
2024/04/12 05:25:22;;;;;;;16.10;3.90;;;;;;;12.57;100.00;102557.19;9004653;26;20076;-76
2024/04/12 05:29:24;;;;;;;8.40;3.80;;;;;;;12.63;100.00;102553.91;9024570;26;20011;-77
2024/04/12 05:33:27;;;;;;;19.60;4.50;;;;;;;12.49;100.00;102560.59;9026134;26;20037;-76
2024/04/12 05:37:35;;;;;;;11.25;3.65;;;;;;;12.63;100.00;102553.91;9025845;26;20049;-78
2024/04/12 05:41:38;;;;;;;7.38;3.92;;;;;;;12.81;100.00;102556.69;9025372;26;20096;-77
2024/04/12 05:45:41;;;;;;;39.03;6.35;;;;;;;13.21;100.00;102556.38;9024994;26;20002;-77
2024/04/12 05:49:43;;;;;;;22.58;5.28;;;;;;;13.09;100.00;102558.41;9024757;26;19999;-77
2024/04/12 05:53:51;;;;;;;14.82;4.38;;;;;;;13.07;100.00;102555.00;8985877;26;20451;-77
2024/04/12 05:57:57;;;;;;;20.63;5.28;;;;;;;12.98;100.00;102569.34;8941964;26;20463;-77
2024/04/12 06:02:01;;;;;;;7.97;4.40;;;;;;;12.85;100.00;102561.63;8994737;26;20030;-76
2024/04/12 06:06:06;;;;;;;10.25;4.78;;;;;;;13.01;100.00;102558.28;8981081;26;20011;-77
2024/04/12 06:10:08;;;;;;;9.07;5.28;;;;;;;13.23;100.00;102559.78;9006237;26;20463;-77
2024/04/12 06:14:09;;;;;;;12.60;5.07;;;;;;;12.87;100.00;102546.19;9024574;26;20017;-77
2024/04/12 06:18:12;;;;;;;9.40;4.78;;;;;;;13.19;100.00;102544.91;9024316;26;20432;-79
2024/04/12 06:22:15;;;;;;;6.47;4.93;;;;;;;13.48;100.00;102542.03;9023869;26;20007;-77
2024/04/12 06:26:17;;;;;;;10.10;5.30;;;;;;;13.18;100.00;102544.06;9024330;26;20018;-78
2024/04/12 06:30:24;;;;;;;6.93;5.05;;;;;;;13.38;100.00;102550.19;9027844;26;20003;-77
2024/04/12 06:34:26;;;;;;;14.40;4.68;;;;;;;13.35;100.00;102550.47;9032212;26;20003;-78
2024/04/12 06:38:29;;;;;;;9.05;4.53;;;;;;;13.16;100.00;102547.88;9029628;26;20079;-77
2024/04/12 06:42:30;;;;;;;17.20;4.45;;;;;;;13.65;100.00;102548.41;9000087;26;20031;-77
2024/04/12 06:46:33;;;;;;;30.52;6.07;;;;;;;13.60;100.00;102550.75;8999281;26;20460;-77
2024/04/12 06:50:36;;;;;;;15.05;5.60;;;;;;;13.34;100.00;102548.78;8997725;26;20043;-77
2024/04/12 06:54:42;;;;;;;14.55;5.38;;;;;;;13.35;100.00;102561.22;9029531;26;20050;-77
2024/04/12 06:58:48;;;;;;;9.32;4.97;;;;;;;13.28;100.00;102561.00;9028744;26;20014;-76
2024/04/12 07:02:49;;;;;;;11.88;5.95;;;;;;;13.16;100.00;102570.25;9029035;26;20072;-77
2024/04/12 07:06:56;;;;;;;8.93;4.55;;;;;;;12.99;100.00;102577.25;9028916;26;20021;-77
2024/04/12 07:10:59;;;;;;;10.23;5.25;;;;;;;13.30;100.00;102577.00;9029472;26;19998;-78
2024/04/12 07:15:00;;;;;;;8.02;5.47;;;;;;;13.15;100.00;102582.00;9029824;26;20007;-77
2024/04/12 07:19:08;;;;;;;9.00;5.50;;;;;;;13.28;100.00;102585.22;9029815;26;20010;-78
2024/04/12 07:23:15;;;;;;;14.57;5.53;;;;;;;13.58;100.00;102573.28;9028859;26;20076;-77
2024/04/12 07:27:17;;;;;;;17.17;5.55;;;;;;;14.10;98.16;102577.97;9020494;26;20048;-77
2024/04/12 07:31:19;;;;;;;23.33;6.57;;;;;;;14.06;97.48;102572.06;9027758;26;20015;-77
2024/04/12 07:35:28;;;;;;;7.22;4.97;;;;;;;13.83;96.92;102566.28;9022609;26;20479;-76
2024/04/12 07:39:31;;;;;;;25.92;6.85;;;;;;;14.05;96.69;102564.94;9028085;26;20031;-77
2024/04/12 07:43:41;;;;;;;13.93;6.07;;;;;;;13.73;97.81;102568.22;9028046;26;20002;-76
2024/04/12 07:47:53;;;;;;;8.18;5.10;;;;;;;13.99;96.04;102567.41;9028754;26;20030;-76
2024/04/12 07:51:58;;;;;;;37.97;8.10;;;;;;;13.99;95.88;102560.19;9028673;26;20027;-77
2024/04/12 07:56:14;;;;;;;12.77;6.15;;;;;;;14.13;96.12;102561.47;9028235;26;20015;-79
2024/04/12 08:00:27;;;;;;;140.35;89.25;;;;;;;14.45;95.15;102569.00;9028303;26;20011;-77
2024/04/12 08:04:36;;;;;;;12.73;6.20;;;;;;;14.58;90.70;102563.16;9028564;26;20017;-78
2024/04/12 08:08:45;;;;;;;11.13;6.15;;;;;;;14.39;90.36;102550.69;9027850;26;20015;-78
2024/04/12 08:12:49;;;;;;;34.53;7.40;;;;;;;15.00;92.22;102560.53;8996172;26;20010;-77
2024/04/12 08:16:53;;;;;;;16.65;7.38;;;;;;;14.87;87.82;102563.66;9028007;26;20006;-77
2024/04/12 08:21:07;;;;;;;14.02;7.35;;;;;;;14.59;89.24;102554.94;9027829;26;20450;-78
2024/04/12 08:25:17;;;;;;;22.55;7.45;;;;;;;14.86;88.76;102553.88;9028421;26;20025;-78
2024/04/12 08:29:23;;;;;;;42.60;5.37;;;;;;;14.89;86.78;102550.84;9028734;26;20003;-78
2024/04/12 08:33:28;;;;;;;15.45;7.13;;;;;;;15.14;88.88;102545.56;9027785;26;20026;-77
2024/04/12 08:37:32;;;;;;;12.10;7.70;;;;;;;14.58;89.25;102541.56;9027157;26;20052;-77
2024/04/12 08:41:37;;;;;;;12.45;7.90;;;;;;;14.90;88.19;102551.69;9027708;26;20048;-77
2024/04/12 08:45:43;;;;;;;15.70;8.63;;;;;;;14.69;89.55;102550.25;9006970;26;20013;-77
2024/04/12 08:49:51;;;;;;;26.25;10.18;;;;;;;14.77;88.79;102547.59;9027394;26;20284;-77
2024/04/12 08:53:57;;;;;;;18.08;9.70;;;;;;;14.89;87.48;102545.44;9025243;26;20013;-77
2024/04/12 08:58:06;;;;;;;12.98;8.95;;;;;;;15.04;87.02;102532.19;9027117;26;20088;-78
2024/04/12 09:02:13;;;;;;;22.30;9.43;;;;;;;15.32;86.58;102524.69;9026087;26;20040;-78
2024/04/12 09:06:22;;;;;;;17.25;9.43;;;;;;;15.46;85.70;102532.16;9026453;26;20011;-76
2024/04/12 09:10:25;;;;;;;19.10;10.05;;;;;;;15.46;83.04;102531.31;9026311;26;20331;-77
2024/04/12 09:14:28;;;;;;;17.33;11.07;;;;;;;16.15;82.16;102532.72;9026716;26;20007;-77
2024/04/12 09:18:44;;;;;;;15.07;9.85;;;;;;;16.02;80.05;102527.81;9026517;26;20003;-78
2024/04/12 09:22:54;;;;;;;9.35;4.57;;;;;;;15.16;82.43;102530.88;8997957;26;20519;-77
2024/04/12 09:26:56;;;;;;;13.43;8.30;;;;;;;15.35;83.78;102527.06;9026077;26;20370;-77
2024/04/12 09:35:26;;;;;;;21.27;8.65;;;;;;;15.85;80.64;102526.13;9021414;26;19999;-77
2024/04/12 09:40:03;;;;;;;19.33;9.48;;;;;;;15.73;82.72;102520.22;9027861;26;20007;-77
2024/04/12 09:44:14;;;;;;;21.08;8.13;;;;;;;15.52;83.52;102506.31;9026216;26;19999;-78
2024/04/12 10:40:55;;;;;;;25.45;7.40;;;;;;;16.32;79.03;102460.50;9015766;26;20003;-77
2024/04/12 10:44:59;;;;;;;15.90;7.95;;;;;;;16.26;77.75;102456.63;9023408;26;20003;-76
2024/04/12 10:49:01;;;;;;;25.67;7.85;;;;;;;16.46;77.22;102448.94;8997091;26;20010;-77
2024/04/12 10:53:06;;;;;;;22.67;7.70;;;;;;;16.63;78.04;102450.56;9014258;26;20745;-77
2024/04/12 10:57:11;;;;;;;14.35;6.70;;;;;;;16.11;73.98;102448.38;9027861;26;20013;-77
2024/04/12 11:01:16;;;;;;;12.18;6.70;;;;;;;16.23;76.51;102443.44;9026430;26;20044;-77
2024/04/12 11:09:30;;;;;;;9.40;6.40;;;;;;;16.57;75.95;102427.78;8991449;26;20022;-77
2024/04/12 11:13:35;;;;;;;11.82;6.10;;;;;;;16.53;76.01;102396.69;9024125;26;20018;-77
2024/04/12 11:35:01;;;;;;;20.23;7.07;;;;;;;17.34;68.78;102406.16;8984332;26;20022;-78
2024/04/12 11:39:23;;;;;;;23.45;7.50;;;;;;;17.77;66.56;102398.38;8998501;26;20425;-77
2024/04/12 11:43:25;;;;;;;8.65;4.28;;;;;;;17.19;67.45;102408.00;9030315;26;20373;-77
2024/04/12 11:47:27;;;;;;;26.52;6.00;;;;;;;17.73;65.30;102402.50;9002092;26;20477;-78
2024/04/12 11:51:33;;;;;;;8.10;4.68;;;;;;;17.76;65.60;102400.25;8990639;26;20056;-79
2024/04/12 11:55:35;;;;;;;9.35;4.53;;;;;;;17.98;65.03;102398.47;9027137;26;20417;-78
2024/04/12 11:59:37;;;;;;;15.38;5.32;;;;;;;18.25;65.93;102388.03;8997278;26;20485;-78
2024/04/12 12:03:39;;;;;;;18.77;6.18;;;;;;;19.20;61.12;102375.13;8995605;26;20025;-78
2024/04/12 12:07:44;;;;;;;9.15;4.50;;;;;;;19.71;60.13;102368.69;8974628;26;20076;-79
2024/04/12 12:11:49;;;;;;;14.95;5.43;;;;;;;19.22;58.32;102362.19;8985185;26;20072;-78
2024/04/12 12:15:51;;;;;;;18.20;5.40;;;;;;;20.01;57.99;102342.09;8975171;26;20049;-78
2024/04/12 12:19:53;;;;;;;6.93;4.07;;;;;;;19.76;57.47;102347.16;8977923;26;20015;-79
2024/04/12 12:23:55;;;;;;;11.38;3.92;;;;;;;19.21;57.81;102343.38;9029679;26;20002;-78
2024/04/12 12:28:00;;;;;;;5.03;4.20;;;;;;;20.06;56.57;102337.72;9037148;26;20010;-78
2024/04/12 12:32:02;;;;;;;23.00;5.63;;;;;;;20.49;56.13;102332.09;9045234;26;20046;-79
2024/04/12 12:36:05;;;;;;;16.20;5.00;;;;;;;21.07;52.67;102313.34;9010330;26;20039;-77
2024/04/12 12:40:13;;;;;;;11.35;4.88;;;;;;;20.36;56.48;102308.34;9031239;26;20018;-77
2024/04/12 12:44:18;;;;;;;8.98;4.07;;;;;;;19.99;55.43;102309.66;8999716;26;20018;-79
2024/04/12 12:48:20;;;;;;;8.93;3.85;;;;;;;19.84;55.54;102298.06;8985921;26;20342;-78
2024/04/12 12:52:22;;;;;;;9.27;3.88;;;;;;;19.63;57.03;102299.00;9034628;26;20003;-78
2024/04/12 12:56:24;;;;;;;16.90;3.95;;;;;;;19.82;56.46;102298.28;9035948;26;20210;-79
2024/04/12 13:00:33;;;;;;;7.00;4.03;;;;;;;19.57;56.08;102294.34;9037802;26;20044;-80
2024/04/12 13:04:35;;;;;;;9.52;3.88;;;;;;;19.74;56.84;102284.00;8973686;26;20007;-78
2024/04/12 13:08:41;;;;;;;16.65;4.45;;;;;;;20.58;55.30;102281.84;8992666;26;20003;-79
2024/04/12 13:12:43;;;;;;;4.75;3.15;;;;;;;20.67;55.38;102279.78;9039265;26;20014;-79
2024/04/12 13:16:44;;;;;;;6.38;2.88;;;;;;;20.23;55.12;102269.38;9010297;26;20050;-79
2024/04/12 13:20:46;;;;;;;4.63;1.95;;;;;;;19.69;56.21;102264.72;9029193;26;20052;-80
2024/04/12 13:24:48;;;;;;;4.38;2.42;;;;;;;19.63;56.22;102254.66;9012297;26;20079;-78
2024/04/12 13:28:52;;;;;;;6.07;2.30;;;;;;;19.59;56.16;102256.94;9005228;26;20013;-80
2024/04/12 13:32:58;;;;;;;11.65;2.60;;;;;;;20.11;56.08;102231.84;9047601;26;20014;-78
2024/04/12 13:37:02;;;;;;;4.07;2.42;;;;;;;19.72;56.12;102243.41;9045048;26;20548;-78
2024/04/12 13:41:10;;;;;;;8.30;2.00;;;;;;;20.00;54.93;102227.03;9024807;26;20008;-79
2024/04/12 13:53:52;;;;;;;22.10;2.97;;;;;;;20.28;55.60;102186.06;9042140;26;19999;-78
2024/04/12 13:57:54;;;;;;;3.67;2.22;;;;;;;20.57;55.60;102209.38;9005525;26;20011;-78
2024/04/12 14:01:58;;;;;;;7.50;1.98;;;;;;;20.18;54.72;102200.06;9040441;26;20007;-80
2024/04/12 14:06:00;;;;;;;5.13;1.88;;;;;;;19.88;55.21;102177.81;9004774;26;20000;-79
2024/04/12 14:10:06;;;;;;;3.13;2.00;;;;;;;19.99;55.04;102167.38;9028846;26;20434;-80
2024/04/12 14:14:09;;;;;;;4.70;1.70;;;;;;;20.57;54.05;102179.44;9041848;26;20014;-78
2024/04/12 14:18:11;;;;;;;3.92;1.80;;;;;;;20.89;54.16;102174.19;9032545;26;20018;-79
2024/04/12 14:22:13;;;;;;;4.65;1.63;;;;;;;20.64;52.99;102172.09;9011794;26;20007;-79
2024/04/12 14:26:14;;;;;;;5.68;1.85;;;;;;;20.12;54.53;102173.66;9040264;26;20010;-78
2024/04/12 14:30:16;;;;;;;8.75;2.08;;;;;;;20.27;54.34;102161.78;8984344;26;20031;-78
2024/04/12 14:34:20;;;;;;;9.25;2.28;;;;;;;20.76;54.85;102154.09;8993327;26;20015;-78
2024/04/12 14:38:22;;;;;;;7.55;1.90;;;;;;;20.52;54.27;102127.50;8972721;26;20003;-80
2024/04/12 14:42:23;;;;;;;5.63;1.77;;;;;;;20.10;55.53;102140.41;9038816;26;20033;-79
2024/04/12 14:46:31;;;;;;;3.53;1.15;;;;;;;19.85;55.14;102139.31;9042526;26;20007;-79
2024/04/12 14:50:33;;;;;;;3.92;1.63;;;;;;;20.61;54.95;102141.72;9041888;26;20010;-79
2024/04/12 14:54:39;;;;;;;4.25;2.05;;;;;;;21.02;54.19;102133.31;9038315;26;20003;-79
2024/04/12 14:58:40;;;;;;;4.72;1.70;;;;;;;20.82;53.37;102125.16;8976599;26;20536;-78
2024/04/12 15:54:21;;;;;;;3.60;1.92;;;;;;;20.05;55.96;102123.88;9015680;26;20018;-79
2024/04/12 16:11:26;;;;;;;4.32;2.15;;;;;;;20.16;55.07;102093.34;9020226;26;19999;-79
2024/04/12 16:15:28;;;;;;;2.28;1.35;;;;;;;20.07;55.50;102093.72;8978757;26;20002;-78
2024/04/12 16:19:29;;;;;;;3.33;1.90;;;;;;;20.12;55.94;102093.94;8977014;26;19999;-79
2024/04/12 16:23:31;;;;;;;3.03;1.80;;;;;;;20.00;55.99;102087.47;9035435;26;20006;-78
2024/04/12 16:27:33;;;;;;;4.38;0.98;;;;;;;19.80;56.13;102087.44;8983881;26;20016;-78
2024/04/12 16:31:38;;;;;;;5.53;1.73;;;;;;;19.86;55.48;102086.59;9028104;26;20003;-78
2024/04/12 16:35:41;;;;;;;5.03;2.25;;;;;;;19.92;55.95;102088.47;8960224;26;20018;-79
2024/04/12 16:39:43;;;;;;;1.88;1.23;;;;;;;19.56;56.69;102091.53;8964996;26;20458;-78
2024/04/12 16:43:46;;;;;;;5.10;2.10;;;;;;;19.80;56.77;102082.00;9027040;26;20003;-78
2024/04/12 16:47:49;;;;;;;4.38;2.45;;;;;;;19.62;56.98;102071.69;9002311;26;20089;-78
2024/04/12 16:51:54;;;;;;;5.57;2.20;;;;;;;19.51;58.46;102069.53;9026632;26;20003;-78
2024/04/12 16:55:56;;;;;;;3.42;2.05;;;;;;;19.37;58.82;102081.38;9034885;26;19999;-78
2024/04/12 16:59:57;;;;;;;5.20;2.33;;;;;;;19.16;60.36;102075.03;9043838;26;20011;-78
2024/04/12 17:03:59;;;;;;;4.93;2.95;;;;;;;19.11;60.22;102072.09;8985011;26;20018;-79
2024/04/12 17:08:03;;;;;;;4.68;2.88;;;;;;;19.06;61.24;102063.69;9031973;26;20035;-78
2024/04/12 17:12:06;;;;;;;3.10;2.80;;;;;;;18.74;62.08;102073.31;9006782;26;20008;-78
2024/04/12 17:16:08;;;;;;;8.35;5.20;;;;;;;18.85;62.30;102064.63;9006111;26;20003;-80
2024/04/12 17:20:10;;;;;;;5.30;2.83;;;;;;;18.71;62.88;102064.72;9036188;26;20014;-78
2024/04/12 17:24:13;;;;;;;2.53;2.33;;;;;;;18.68;63.03;102065.97;9002964;26;20031;-78
2024/04/12 17:28:17;;;;;;;2.22;1.65;;;;;;;18.34;64.57;102077.59;9031837;26;20030;-79
2024/04/12 17:32:19;;;;;;;4.95;2.70;;;;;;;18.49;64.80;102067.47;9003363;26;20011;-79
2024/04/12 17:36:21;;;;;;;5.53;2.78;;;;;;;18.37;65.48;102069.03;9011574;26;20003;-79
2024/04/12 17:40:23;;;;;;;6.38;3.63;;;;;;;18.20;66.58;102062.22;9032777;26;20034;-79
2024/04/12 17:44:24;;;;;;;5.90;3.20;;;;;;;18.24;66.65;102071.69;8994027;26;19999;-78
2024/04/12 17:48:26;;;;;;;5.85;2.97;;;;;;;18.15;68.01;102061.97;8941490;26;20031;-78
2024/04/12 17:52:28;;;;;;;3.53;2.75;;;;;;;18.33;67.72;102059.63;8986314;26;20003;-78
2024/04/12 17:56:30;;;;;;;3.47;2.75;;;;;;;18.10;68.17;102053.59;8939367;26;20008;-78
2024/04/12 18:00:32;;;;;;;6.63;3.22;;;;;;;18.00;69.29;102048.50;8993700;26;20419;-79
2024/04/12 18:04:36;;;;;;;5.03;3.60;;;;;;;18.12;69.11;102041.53;9030803;26;20009;-78
2024/04/12 18:08:38;;;;;;;4.13;3.10;;;;;;;18.09;69.67;102052.75;9027240;26;20007;-78
2024/04/12 18:12:40;;;;;;;5.05;3.40;;;;;;;17.89;70.86;102058.00;9024759;26;20006;-77
2024/04/12 18:16:45;;;;;;;5.53;3.55;;;;;;;17.94;71.46;102055.53;9026988;26;20034;-79
2024/04/12 18:20:47;;;;;;;4.43;3.53;;;;;;;17.72;71.89;102064.72;9030783;26;20458;-79
2024/04/12 18:24:49;;;;;;;4.75;3.55;;;;;;;17.72;72.28;102081.81;8997065;26;20019;-79
2024/04/12 18:28:52;;;;;;;6.10;3.28;;;;;;;17.67;73.23;102067.09;9030285;26;20017;-77
2024/04/12 18:32:56;;;;;;;5.10;3.00;;;;;;;17.66;73.15;102085.22;9032466;26;20420;-79
2024/04/12 18:45:38;;;;;;;6.68;3.00;;;;;;;17.32;74.41;102077.75;9009076;26;20029;-77
2024/04/12 18:49:40;;;;;;;4.65;3.08;;;;;;;17.39;73.82;102083.25;9032713;26;20458;-78
2024/04/12 18:53:41;;;;;;;5.35;3.03;;;;;;;17.26;74.86;102083.09;8990004;26;20046;-77
2024/04/12 18:57:43;;;;;;;2.58;2.35;;;;;;;17.18;75.11;102090.28;8971449;26;20018;-78
2024/04/12 19:01:46;;;;;;;2.83;2.28;;;;;;;17.22;75.18;102090.75;9012558;26;20080;-77
2024/04/12 19:05:47;;;;;;;3.92;2.95;;;;;;;17.15;74.90;102087.09;9028723;26;20027;-77
2024/04/12 19:09:50;;;;;;;3.47;2.75;;;;;;;17.09;75.32;102087.88;9028151;26;20451;-79
2024/04/12 19:13:53;;;;;;;4.15;2.60;;;;;;;17.26;74.38;102089.34;8967715;26;19999;-77
2024/04/12 19:17:55;;;;;;;4.68;2.42;;;;;;;17.02;75.36;102086.94;9009018;26;20076;-79
2024/04/12 19:21:58;;;;;;;6.28;2.53;;;;;;;17.19;74.26;102091.13;9022089;26;20006;-77
2024/04/12 19:26:00;;;;;;;3.03;1.77;;;;;;;16.93;76.00;102098.88;9027310;26;20035;-77
2024/04/12 19:30:01;;;;;;;3.55;2.03;;;;;;;17.17;75.51;102096.72;9027262;26;19999;-77
2024/04/12 19:34:03;;;;;;;4.28;2.30;;;;;;;17.30;75.03;102092.50;9024273;26;19999;-78
2024/04/12 19:38:07;;;;;;;4.78;2.13;;;;;;;16.84;77.03;102096.28;9024712;26;20006;-77
2024/04/12 19:42:08;;;;;;;2.53;1.88;;;;;;;16.85;77.21;102089.84;9004166;26;20012;-77
2024/04/12 19:46:14;;;;;;;5.97;2.45;;;;;;;16.72;78.19;102096.91;8976924;26;20007;-77
2024/04/12 19:50:16;;;;;;;4.40;2.35;;;;;;;16.88;77.81;102078.63;9026380;26;20006;-78
2024/04/12 19:54:18;;;;;;;4.60;2.50;;;;;;;16.79;78.61;102084.31;8992539;26;20031;-77
2024/04/12 19:58:21;;;;;;;5.80;2.60;;;;;;;16.80;78.54;102076.00;9027376;26;20507;-78
2024/04/12 20:02:23;;;;;;;4.07;2.38;;;;;;;16.65;80.14;102072.41;9028290;26;20014;-77
2024/04/12 20:06:25;;;;;;;4.70;2.40;;;;;;;16.48;81.15;102074.44;9031336;26;20030;-77
2024/04/12 20:10:28;;;;;;;3.00;2.22;;;;;;;16.31;82.73;102061.25;9028535;26;20052;-78
2024/04/12 20:14:29;;;;;;;3.20;2.10;;;;;;;16.25;83.30;102063.66;8994052;26;20034;-78
2024/04/12 20:18:34;;;;;;;5.63;2.22;;;;;;;16.26;83.27;102062.63;8983408;26;20014;-77
2024/04/12 20:22:38;;;;;;;4.45;2.40;;;;;;;16.15;84.87;102067.66;9020898;26;20007;-78
2024/04/12 20:26:45;;;;;;;4.18;2.38;;;;;;;16.29;83.23;102064.97;8970058;26;19999;-78
2024/04/12 20:30:58;;;;;;;6.28;2.60;;;;;;;16.24;83.98;102067.38;8990653;26;20017;-78
2024/04/12 20:39:17;;;;;;;4.18;2.80;;;;;;;16.03;86.49;102066.41;9021542;26;20087;-77
2024/04/12 20:43:20;;;;;;;5.22;2.60;;;;;;;16.18;85.03;102073.53;8993030;26;20002;-77
2024/04/12 20:47:21;;;;;;;4.60;2.30;;;;;;;16.05;86.45;102075.16;8991713;26;20003;-78
2024/04/12 20:51:23;;;;;;;4.53;2.55;;;;;;;15.96;86.96;102075.22;9025839;26;20018;-77
2024/04/12 20:55:25;;;;;;;9.75;3.00;;;;;;;16.10;86.08;102067.34;8946814;26;20004;-77
2024/04/12 20:59:29;;;;;;;4.85;3.13;;;;;;;16.05;86.91;102072.47;8972462;26;20245;-77
2024/04/12 21:03:31;;;;;;;3.20;2.85;;;;;;;15.78;88.51;102080.06;9022332;26;20025;-77
2024/04/12 21:07:33;;;;;;;5.03;2.85;;;;;;;15.77;88.43;102070.28;8979292;26;20003;-77
2024/04/12 21:11:35;;;;;;;3.05;2.40;;;;;;;15.90;88.66;102059.72;8993224;26;20362;-77
2024/04/12 21:15:37;;;;;;;5.30;2.72;;;;;;;15.81;89.81;102054.56;9002761;26;20007;-77
2024/04/12 21:19:39;;;;;;;3.85;2.88;;;;;;;15.84;89.32;102056.91;8970696;26;20022;-77
2024/04/12 21:23:41;;;;;;;8.02;2.88;;;;;;;15.81;89.24;102058.13;9004935;26;20035;-77
2024/04/12 21:27:42;;;;;;;4.15;3.15;;;;;;;15.88;89.11;102050.97;8969418;26;20459;-77
2024/04/12 21:31:45;;;;;;;5.07;3.38;;;;;;;15.72;90.27;102050.25;9002880;26;19999;-77
2024/04/12 21:35:57;;;;;;;4.90;2.70;;;;;;;15.65;90.39;102059.06;9025164;26;20082;-77